PY-0018 weather

Estancia Lomas Airport
Rosario, San Pedro Department, Paraguay

Public forecast

Using degrees Celsius for public forecast. Weather courtesy of forecast.io.

METAR (pilot weather report)

Report is more than 6 hours old.

Closest report is San Pedro Airport, 32.2 nm (59.7 km) N. Retrieved 2018/06/02 00:00 UTC (17 days ago):

SGSP 020000Z 18006KT 9999 OVC010 14/14 Q1014

TAF (pilot weather forecast)

Forecast is more than 12 hours old.

Closest forecast is Silvio Pettirossi International Airport, 42.5 nm (78.7 km) SSW. Retrieved 2018/06/15 18:20 UTC (3 days ago):

TAF SGAS 151815Z 1518/1618 22010KT 9999 SCT027 TX14/1619Z TN03/1609Z BECMG 1612/1615 20012KT 9999 BKN027